Time;durP1;ratioP1;P1;durP2;ratioP2;P2;SDS_P1;SDS_P2;PMS_P1;PMS_P2;Temp;Humidity;BMP_temperature;BMP_pressure;BME280_temperature;BME280_humidity;BME280_pressure;Samples;Min_cycle;Max_cycle;Signal;HPM_P1;HPM_P2
2020/12/29 00:01:44;;;;;;;11.57;7.60;;;;;;;5.67;69.04;97740.61;120673;1148;104356;-81
2020/12/29 00:04:14;;;;;;;11.47;7.50;;;;;;;5.67;69.33;97733.69;120694;1149;103175;-81
2020/12/29 00:06:52;;;;;;;11.90;7.70;;;;;;;5.68;69.57;97734.52;120613;1150;103612;-80
2020/12/29 00:09:21;;;;;;;10.90;7.30;;;;;;;5.70;69.89;97730.10;120588;1148;104233;-81
2020/12/29 00:11:49;;;;;;;10.10;6.83;;;;;;;5.72;69.64;97738.61;120599;1148;104360;-79
2020/12/29 00:14:20;;;;;;;9.70;6.80;;;;;;;5.75;69.90;97746.23;120650;1148;104450;-80
2020/12/29 00:16:47;;;;;;;10.53;7.27;;;;;;;5.78;70.11;97735.73;120640;1148;104306;-80
2020/12/29 00:19:27;;;;;;;12.03;7.60;;;;;;;5.79;70.12;97739.98;120568;1148;104398;-79
2020/12/29 00:21:54;;;;;;;11.13;7.07;;;;;;;5.80;70.08;97727.88;120557;1148;104322;-80
2020/12/29 00:24:22;;;;;;;12.43;7.37;;;;;;;5.81;69.56;97727.80;120576;1148;104386;-80
2020/12/29 00:27:04;;;;;;;11.90;7.50;;;;;;;5.86;69.75;97746.48;120578;1148;104393;-79
2020/12/29 00:29:32;;;;;;;12.40;7.90;;;;;;;5.89;70.32;97720.45;120596;1148;103252;-79
2020/12/29 00:32:03;;;;;;;11.23;7.37;;;;;;;5.89;69.72;97717.86;120581;1148;104414;-79
2020/12/29 00:34:30;;;;;;;10.93;7.30;;;;;;;5.93;70.20;97698.73;120665;1149;104355;-80
2020/12/29 00:36:57;;;;;;;12.30;8.07;;;;;;;5.93;70.01;97724.60;120643;1148;104419;-80
2020/12/29 00:39:24;;;;;;;14.25;8.20;;;;;;;5.93;70.22;97703.91;120586;1148;104786;-80
2020/12/29 00:41:55;;;;;;;12.77;8.00;;;;;;;5.93;70.02;97716.01;120649;1148;104396;-80
2020/12/29 00:44:24;;;;;;;12.53;7.70;;;;;;;5.93;69.78;97710.83;120584;1148;104371;-79
2020/12/29 00:46:52;;;;;;;12.57;8.40;;;;;;;5.94;70.49;97690.05;120545;1148;104363;-79
2020/12/29 00:49:19;;;;;;;13.33;7.83;;;;;;;5.95;70.46;97685.71;120603;1148;104285;-80
2020/12/29 00:51:46;;;;;;;11.87;7.73;;;;;;;5.94;70.50;97684.87;120596;1148;104405;-80
2020/12/29 00:54:14;;;;;;;11.73;8.00;;;;;;;5.94;70.35;97691.80;120706;1149;104417;-80
2020/12/29 00:56:44;;;;;;;14.10;8.60;;;;;;;5.95;70.59;97680.53;120657;1151;104358;-80
2020/12/29 00:59:12;;;;;;;11.30;8.07;;;;;;;5.93;70.52;97679.78;120569;1148;104391;-80
2020/12/29 01:01:39;;;;;;;12.30;7.87;;;;;;;5.92;70.58;97670.33;120567;1149;105750;-80
2020/12/29 01:04:27;;;;;;;12.00;8.03;;;;;;;5.91;70.25;97651.38;120523;1148;104399;-80
2020/12/29 01:06:55;;;;;;;12.80;8.30;;;;;;;5.89;70.53;97671.30;120634;1148;104846;-80
2020/12/29 01:09:22;;;;;;;11.37;7.60;;;;;;;5.88;70.31;97643.77;120615;1150;103604;-80
2020/12/29 01:11:50;;;;;;;12.87;8.00;;;;;;;5.87;70.49;97639.52;120606;1148;104805;-80
2020/12/29 01:14:18;;;;;;;10.63;7.73;;;;;;;5.86;70.99;97640.44;120588;1150;104307;-80
2020/12/29 01:17:08;;;;;;;10.57;7.40;;;;;;;5.83;70.99;97645.78;120588;1148;104285;-80
2020/12/29 01:19:36;;;;;;;12.47;7.53;;;;;;;5.85;70.98;97643.11;120579;1150;104310;-80
2020/12/29 01:22:03;;;;;;;11.73;8.23;;;;;;;5.84;70.34;97631.09;120603;1148;104414;-79
2020/12/29 01:24:30;;;;;;;10.83;7.93;;;;;;;5.85;70.55;97623.25;120582;1149;104460;-80
2020/12/29 01:26:58;;;;;;;11.87;7.93;;;;;;;5.85;70.54;97628.42;120568;1150;104513;-80
2020/12/29 01:29:25;;;;;;;11.60;7.73;;;;;;;5.88;70.45;97617.90;120572;1148;104313;-80
2020/12/29 01:31:52;;;;;;;10.63;7.20;;;;;;;5.88;70.47;97612.73;120603;1147;104347;-79
2020/12/29 01:34:19;;;;;;;12.50;7.60;;;;;;;5.88;70.37;97604.97;120608;1150;104439;-79
2020/12/29 01:36:46;;;;;;;11.40;7.45;;;;;;;5.90;70.79;97600.57;120502;1150;105819;-80
2020/12/29 01:39:13;;;;;;;11.20;7.63;;;;;;;5.91;70.51;97606.58;120678;1148;104339;-79
2020/12/29 01:41:40;;;;;;;10.93;8.00;;;;;;;5.92;70.32;97605.66;120579;1150;104416;-79
2020/12/29 01:44:15;;;;;;;9.98;7.37;;;;;;;5.91;70.73;97616.92;120563;1148;104505;-79
2020/12/29 01:46:44;;;;;;;11.60;7.13;;;;;;;5.92;70.33;97598.73;120539;1148;104609;-80
2020/12/29 01:49:12;;;;;;;12.67;7.90;;;;;;;5.92;70.69;97614.25;120634;1150;104326;-80
2020/12/29 01:51:40;;;;;;;13.47;7.80;;;;;;;5.94;70.49;97621.95;120604;1148;104313;-80
2020/12/29 01:54:07;;;;;;;11.20;7.95;;;;;;;5.97;70.80;97606.26;120627;1150;103313;-80
2020/12/29 01:56:40;;;;;;;11.77;8.07;;;;;;;6.00;70.16;97599.16;120571;1148;104319;-79
2020/12/29 01:59:12;;;;;;;12.35;8.00;;;;;;;6.02;70.29;97593.89;120529;1148;104403;-80
2020/12/29 02:01:42;;;;;;;10.30;7.80;;;;;;;6.03;70.58;97622.27;120594;1148;104295;-80
2020/12/29 02:04:11;;;;;;;10.77;7.87;;;;;;;6.06;70.15;97582.44;120631;1149;104338;-80
2020/12/29 02:06:40;;;;;;;12.30;8.15;;;;;;;6.07;70.02;97609.98;120622;1148;104757;-80
2020/12/29 02:09:12;;;;;;;11.67;7.83;;;;;;;6.10;70.17;97570.16;120513;1149;104312;-80
2020/12/29 02:11:39;;;;;;;9.43;7.37;;;;;;;6.11;70.34;97571.86;120560;1148;104197;-79
2020/12/29 02:14:08;;;;;;;11.12;7.97;;;;;;;6.12;70.25;97589.88;120566;1150;105609;-79
2020/12/29 02:16:39;;;;;;;11.93;8.20;;;;;;;6.15;70.36;97565.58;120550;1148;104394;-80
2020/12/29 02:19:07;;;;;;;11.03;7.93;;;;;;;6.16;69.59;97562.06;120577;1148;104367;-79
2020/12/29 02:21:35;;;;;;;11.27;7.47;;;;;;;6.18;70.34;97568.82;120621;1148;104506;-80
2020/12/29 02:24:07;;;;;;;10.77;7.67;;;;;;;6.19;69.28;97564.47;120637;1148;104484;-79
2020/12/29 02:26:35;;;;;;;11.23;7.43;;;;;;;6.20;69.64;97541.09;120611;1150;104431;-79
2020/12/29 02:29:05;;;;;;;11.00;7.53;;;;;;;6.21;69.84;97547.10;120723;1149;104367;-79
2020/12/29 02:31:33;;;;;;;10.47;7.60;;;;;;;6.20;69.55;97558.38;120661;1148;104388;-80
2020/12/29 02:34:01;;;;;;;11.43;7.70;;;;;;;6.22;70.01;97541.00;120592;1148;104323;-80
2020/12/29 02:36:28;;;;;;;12.03;7.30;;;;;;;6.20;69.81;97535.08;120592;1148;104313;-80
2020/12/29 02:38:55;;;;;;;9.60;7.43;;;;;;;6.22;69.61;97515.95;120629;1148;104414;-80
2020/12/29 02:41:22;;;;;;;12.07;6.90;;;;;;;6.26;69.50;97524.37;120649;1148;104544;-80
2020/12/29 02:43:49;;;;;;;11.97;7.30;;;;;;;6.27;69.32;97520.86;120620;1148;101827;-80
2020/12/29 02:46:16;;;;;;;11.35;7.20;;;;;;;6.25;68.98;97533.05;120688;1148;104476;-80
2020/12/29 02:48:43;;;;;;;10.40;7.40;;;;;;;6.26;68.87;97496.73;120577;1148;104329;-80
2020/12/29 02:51:15;;;;;;;9.63;7.07;;;;;;;6.25;69.23;97509.77;120584;1148;104780;-79
2020/12/29 02:53:42;;;;;;;9.73;7.03;;;;;;;6.24;69.24;97516.70;120647;1149;104377;-79
2020/12/29 02:56:09;;;;;;;8.80;6.40;;;;;;;6.26;68.68;97511.42;120579;1148;104443;-80
2020/12/29 02:58:36;;;;;;;8.73;6.73;;;;;;;6.29;69.22;97488.81;120574;1148;104533;-80
2020/12/29 03:01:03;;;;;;;9.77;6.83;;;;;;;6.30;68.53;97505.17;120634;1148;104333;-79
2020/12/29 03:03:30;;;;;;;8.13;6.03;;;;;;;6.30;69.06;97487.89;120654;1150;104445;-79
2020/12/29 03:05:57;;;;;;;10.47;6.23;;;;;;;6.33;68.75;97499.81;120599;1150;104382;-79
2020/12/29 03:08:24;;;;;;;9.63;6.90;;;;;;;6.33;68.86;97504.98;120719;1148;104431;-80
2020/12/29 03:10:51;;;;;;;9.83;6.50;;;;;;;6.32;68.73;97500.73;120619;1151;104671;-79
2020/12/29 03:13:18;;;;;;;10.50;6.67;;;;;;;6.33;68.66;97494.63;120576;1148;104394;-79
2020/12/29 03:15:45;;;;;;;9.05;6.70;;;;;;;6.33;68.77;97494.63;120640;1148;104295;-79
2020/12/29 03:18:12;;;;;;;9.18;6.58;;;;;;;6.33;68.74;97489.45;120549;1148;104359;-80
2020/12/29 03:20:39;;;;;;;9.33;6.20;;;;;;;6.31;68.53;97504.25;120601;1148;104845;-80
2020/12/29 03:23:06;;;;;;;8.63;6.27;;;;;;;6.33;68.33;97485.11;120653;1148;104367;-80
2020/12/29 03:25:34;;;;;;;11.20;7.03;;;;;;;6.34;68.05;97473.00;120618;1148;103329;-80
2020/12/29 03:28:01;;;;;;;10.60;6.15;;;;;;;6.35;67.88;97472.08;120622;1148;104385;-80
2020/12/29 03:30:28;;;;;;;9.27;6.27;;;;;;;6.37;68.19;97477.99;120636;1148;104445;-80
2020/12/29 03:32:55;;;;;;;8.93;6.17;;;;;;;6.37;67.97;97496.11;120566;1148;104320;-79
2020/12/29 03:35:22;;;;;;;8.50;6.53;;;;;;;6.38;68.20;97477.06;120651;1148;104400;-80
2020/12/29 03:37:49;;;;;;;9.00;6.37;;;;;;;6.39;68.46;97467.55;120615;1148;104332;-79
2020/12/29 03:40:17;;;;;;;8.07;5.67;;;;;;;6.39;67.96;97477.90;120580;1148;104398;-80
2020/12/29 03:42:44;;;;;;;7.05;6.03;;;;;;;6.39;68.36;97452.84;120643;1148;104469;-80
2020/12/29 03:45:11;;;;;;;8.20;6.30;;;;;;;6.40;68.31;97453.67;120592;1150;104434;-80
2020/12/29 03:47:38;;;;;;;7.57;6.00;;;;;;;6.43;68.10;97432.77;120608;1148;105026;-80
2020/12/29 03:50:05;;;;;;;10.50;6.33;;;;;;;6.41;67.82;97438.05;120621;1148;104494;-80
2020/12/29 03:52:32;;;;;;;11.23;6.07;;;;;;;6.41;68.15;97435.45;120570;1148;104278;-79
2020/12/29 03:54:59;;;;;;;9.53;6.00;;;;;;;6.39;67.78;97455.43;120611;1148;104316;-80
2020/12/29 03:57:26;;;;;;;8.37;6.10;;;;;;;6.38;68.55;97430.47;120630;1148;104383;-80
2020/12/29 03:59:53;;;;;;;8.50;5.80;;;;;;;6.38;68.48;97450.34;120686;1148;104330;-80
2020/12/29 04:02:20;;;;;;;9.67;5.93;;;;;;;6.37;68.25;97439.16;120539;1148;104409;-79
2020/12/29 04:04:47;;;;;;;10.00;6.60;;;;;;;6.36;68.17;97440.09;120571;1148;104577;-80
2020/12/29 04:07:15;;;;;;;10.67;6.20;;;;;;;6.35;68.46;97434.08;120593;1148;104484;-80
2020/12/29 04:09:42;;;;;;;8.87;6.33;;;;;;;6.36;68.74;97435.74;120597;1149;104345;-80
2020/12/29 04:12:09;;;;;;;8.43;5.93;;;;;;;6.38;68.25;97419.28;120580;1148;104375;-80
2020/12/29 04:14:36;;;;;;;8.25;6.10;;;;;;;6.38;68.04;97425.30;120590;1148;104401;-80
2020/12/29 04:17:03;;;;;;;9.33;6.50;;;;;;;6.38;68.39;97425.30;120571;1150;104446;-79
2020/12/29 04:19:31;;;;;;;11.60;6.15;;;;;;;6.40;68.02;97444.15;120696;1148;104357;-80
2020/12/29 04:21:58;;;;;;;9.93;6.43;;;;;;;6.42;68.07;97429.36;120505;1148;104499;-80
2020/12/29 04:24:25;;;;;;;8.30;6.40;;;;;;;6.42;67.81;97421.59;120574;1148;104632;-79
2020/12/29 04:26:52;;;;;;;8.17;6.10;;;;;;;6.42;68.22;97419.00;120584;1148;104357;-80
2020/12/29 04:29:19;;;;;;;10.08;6.20;;;;;;;6.44;68.36;97399.02;120595;1148;104751;-79
2020/12/29 04:31:47;;;;;;;10.50;5.80;;;;;;;6.46;68.18;97411.88;120601;1148;104319;-80
2020/12/29 04:34:14;;;;;;;11.57;6.30;;;;;;;6.46;68.71;97404.94;120632;1148;102653;-79
2020/12/29 04:36:41;;;;;;;8.85;6.50;;;;;;;6.46;68.06;97417.88;120580;1150;104394;-79
2020/12/29 04:39:09;;;;;;;7.80;6.10;;;;;;;6.48;68.17;97426.42;120554;1148;105961;-80
2020/12/29 04:41:40;;;;;;;8.87;6.53;;;;;;;6.52;68.15;97414.11;120612;1149;104359;-80
2020/12/29 04:44:07;;;;;;;8.93;6.60;;;;;;;6.56;67.92;97411.23;120631;1148;104381;-80
2020/12/29 04:46:35;;;;;;;9.77;6.37;;;;;;;6.58;67.81;97417.14;120626;1148;104433;-81
2020/12/29 04:49:02;;;;;;;8.93;6.37;;;;;;;6.61;68.24;97406.59;120559;1148;104863;-80
2020/12/29 04:51:30;;;;;;;7.17;5.67;;;;;;;6.63;68.05;97420.28;120564;1148;104298;-80
2020/12/29 04:53:58;;;;;;;9.70;6.30;;;;;;;6.65;67.87;97392.56;120646;1148;102933;-79
2020/12/29 04:56:32;;;;;;;9.57;6.40;;;;;;;6.66;67.87;97408.92;120647;1148;104411;-79
2020/12/29 04:59:04;;;;;;;10.23;6.73;;;;;;;6.68;68.19;97390.70;120608;1148;104410;-79
2020/12/29 05:01:35;;;;;;;8.65;5.90;;;;;;;6.71;67.92;97385.33;120687;1149;104978;-80
2020/12/29 05:04:02;;;;;;;10.13;6.33;;;;;;;6.74;67.84;97419.63;120583;1148;104337;-80
2020/12/29 05:06:30;;;;;;;9.97;6.50;;;;;;;6.74;67.72;97390.31;120538;1148;104367;-80
2020/12/29 05:08:57;;;;;;;8.87;6.47;;;;;;;6.74;67.96;97395.49;120565;1148;104342;-79
2020/12/29 05:11:25;;;;;;;9.83;6.50;;;;;;;6.76;67.94;97404.83;120595;1148;104472;-79
2020/12/29 05:13:52;;;;;;;10.00;7.03;;;;;;;6.76;67.47;97388.45;120553;1148;104554;-80
2020/12/29 05:16:19;;;;;;;10.60;6.77;;;;;;;6.74;68.00;97375.60;120548;1148;104348;-79
2020/12/29 05:18:46;;;;;;;9.43;6.07;;;;;;;6.74;67.88;97379.95;120570;1148;104956;-80
2020/12/29 05:21:14;;;;;;;10.13;5.93;;;;;;;6.74;68.42;97378.19;120613;1148;104359;-79
2020/12/29 05:23:41;;;;;;;8.77;6.37;;;;;;;6.74;68.15;97359.23;120587;1147;104505;-80
2020/12/29 05:26:08;;;;;;;9.87;6.90;;;;;;;6.73;67.96;97373.11;120564;1148;104361;-80
2020/12/29 05:28:37;;;;;;;9.43;6.03;;;;;;;6.74;68.28;97364.41;120544;1148;104359;-79
2020/12/29 05:31:05;;;;;;;8.68;6.33;;;;;;;6.75;68.07;97355.71;120598;1148;104365;-80
2020/12/29 05:33:33;;;;;;;11.07;6.60;;;;;;;6.77;68.08;97369.39;120694;1148;104381;-79
2020/12/29 05:36:02;;;;;;;10.13;6.43;;;;;;;6.77;68.09;97365.05;120558;1148;104313;-79
2020/12/29 05:38:29;;;;;;;8.73;6.47;;;;;;;6.77;68.00;97359.03;120635;1148;104345;-80
2020/12/29 05:40:56;;;;;;;8.47;6.60;;;;;;;6.78;68.07;97345.16;120680;1148;104450;-80
2020/12/29 05:43:33;;;;;;;10.17;7.30;;;;;;;6.78;68.53;97356.34;120662;1148;104316;-80
2020/12/29 05:46:05;;;;;;;9.35;7.20;;;;;;;6.79;68.22;97346.81;120548;1148;104569;-80
2020/12/29 05:48:33;;;;;;;9.33;6.60;;;;;;;6.77;68.23;97353.85;120635;1149;104385;-80
2020/12/29 05:51:12;;;;;;;9.90;6.40;;;;;;;6.77;67.75;97343.49;120513;1148;104431;-79
2020/12/29 05:53:39;;;;;;;10.15;7.30;;;;;;;6.79;68.06;97342.46;120626;1148;104338;-80
2020/12/29 05:56:08;;;;;;;9.93;7.23;;;;;;;6.82;68.21;97344.02;120557;1147;104359;-79
2020/12/29 05:58:37;;;;;;;11.80;7.50;;;;;;;6.82;67.65;97338.84;120621;1148;104316;-77
2020/12/29 06:01:04;;;;;;;13.63;7.27;;;;;;;6.84;68.03;97334.42;120579;1148;104346;-78
2020/12/29 06:03:33;;;;;;;9.83;6.47;;;;;;;6.86;68.51;97332.56;120606;1148;104553;-79
2020/12/29 06:06:07;;;;;;;9.33;6.50;;;;;;;6.88;68.00;97338.48;120622;1148;104268;-78
2020/12/29 06:08:36;;;;;;;9.97;6.50;;;;;;;6.89;68.46;97322.00;120571;1148;104239;-79
2020/12/29 06:11:12;;;;;;;8.73;6.63;;;;;;;6.89;68.27;97337.55;120623;1148;103108;-79
2020/12/29 06:13:46;;;;;;;9.67;6.07;;;;;;;6.89;68.48;97330.60;120634;1148;104452;-79
2020/12/29 06:16:17;;;;;;;9.63;7.10;;;;;;;6.88;68.96;97328.94;120533;1148;104384;-80
2020/12/29 06:18:49;;;;;;;10.03;7.00;;;;;;;6.86;68.90;97322.20;120584;1148;104327;-80
2020/12/29 06:21:20;;;;;;;9.50;7.03;;;;;;;6.84;68.61;97319.71;120575;1148;105471;-79
2020/12/29 06:23:48;;;;;;;10.43;7.60;;;;;;;6.85;68.84;97310.18;120617;1148;104818;-79
2020/12/29 06:26:18;;;;;;;8.77;6.80;;;;;;;6.85;68.64;97330.91;120717;1148;104356;-79
2020/12/29 06:28:50;;;;;;;9.93;7.03;;;;;;;6.85;68.94;97317.95;120664;1148;102338;-80
2020/12/29 06:31:27;;;;;;;10.30;6.93;;;;;;;6.84;68.87;97324.06;120627;1148;105500;-79
2020/12/29 06:33:56;;;;;;;9.93;7.05;;;;;;;6.85;69.54;97317.95;120628;1148;104278;-79
2020/12/29 06:36:29;;;;;;;9.17;7.23;;;;;;;6.84;70.74;97316.29;120614;1148;103114;-80
2020/12/29 06:39:06;;;;;;;8.93;6.90;;;;;;;6.76;71.17;97321.11;120570;1148;104370;-80
2020/12/29 06:41:35;;;;;;;8.90;6.87;;;;;;;6.69;71.79;97319.84;120632;1150;104318;-80
2020/12/29 06:44:03;;;;;;;8.23;6.53;;;;;;;6.61;71.67;97310.78;120693;1148;104436;-80
2020/12/29 06:46:30;;;;;;;11.77;7.23;;;;;;;6.55;72.20;97303.41;120621;1148;104799;-80
2020/12/29 06:49:17;;;;;;;10.70;6.73;;;;;;;6.49;71.97;97303.80;120678;1148;104376;-80
2020/12/29 06:51:45;;;;;;;9.38;6.80;;;;;;;6.46;72.33;97295.37;120660;1148;104410;-80
2020/12/29 06:54:21;;;;;;;9.37;6.90;;;;;;;6.42;72.63;97292.15;120654;1148;104773;-79
2020/12/29 06:57:06;;;;;;;11.33;7.23;;;;;;;6.39;72.61;97294.94;120671;1150;103582;-80
2020/12/29 06:59:41;;;;;;;11.67;6.47;;;;;;;6.38;73.43;97284.67;120604;1150;104958;-80
2020/12/29 07:02:22;;;;;;;12.23;7.37;;;;;;;6.36;73.41;97287.36;120680;1148;103335;-80
2020/12/29 07:04:55;;;;;;;10.17;7.00;;;;;;;6.35;72.89;97290.88;120639;1150;104434;-81
2020/12/29 07:07:32;;;;;;;10.07;6.80;;;;;;;6.31;73.39;97295.42;120609;1148;104484;-81
2020/12/29 07:10:09;;;;;;;10.77;7.47;;;;;;;6.30;73.21;97280.82;120699;1148;104476;-80
2020/12/29 07:12:42;;;;;;;12.83;7.20;;;;;;;6.29;74.00;97275.74;120576;1148;104327;-80
2020/12/29 07:15:15;;;;;;;10.27;6.60;;;;;;;6.28;73.97;97279.23;120641;1148;102500;-80
2020/12/29 07:18:04;;;;;;;9.57;6.57;;;;;;;6.28;73.71;97289.58;120612;1148;104506;-81
2020/12/29 07:20:34;;;;;;;9.63;7.33;;;;;;;6.28;74.03;97284.41;120602;1148;104340;-80
2020/12/29 07:23:03;;;;;;;9.80;7.07;;;;;;;6.29;73.75;97286.09;120688;1148;104445;-80
2020/12/29 07:25:34;;;;;;;9.73;6.90;;;;;;;6.31;73.70;97279.06;120708;1148;104371;-80
2020/12/29 07:28:06;;;;;;;15.43;7.97;;;;;;;6.32;73.89;97280.72;120669;1148;105122;-81
2020/12/29 07:30:35;;;;;;;10.17;7.33;;;;;;;6.32;73.57;97289.32;120588;1148;104383;-81
2020/12/29 07:33:07;;;;;;;9.27;6.77;;;;;;;6.32;73.83;97271.20;120566;1151;104693;-80
2020/12/29 07:35:37;;;;;;;14.70;7.20;;;;;;;6.34;73.77;97273.69;120689;1148;104390;-80
2020/12/29 07:38:13;;;;;;;13.07;7.43;;;;;;;6.35;73.76;97268.41;120645;1145;104943;-80
2020/12/29 07:40:43;;;;;;;11.68;7.47;;;;;;;6.37;73.81;97268.31;120622;1148;104314;-80
2020/12/29 07:43:10;;;;;;;10.77;7.10;;;;;;;6.38;74.12;97282.09;120609;1148;104461;-80
2020/12/29 07:45:38;;;;;;;10.73;7.20;;;;;;;6.36;74.85;97271.83;120611;1148;105075;-80
2020/12/29 07:48:07;;;;;;;12.00;7.95;;;;;;;6.33;75.08;97278.03;120625;1150;104480;-80
2020/12/29 07:50:36;;;;;;;12.00;7.43;;;;;;;6.29;74.74;97275.74;120622;1150;104773;-80
2020/12/29 07:53:10;;;;;;;14.20;7.57;;;;;;;6.25;75.26;97271.66;120611;1148;104436;-81
2020/12/29 07:55:42;;;;;;;11.83;7.93;;;;;;;6.24;76.06;97272.58;120567;1148;104753;-81
2020/12/29 07:58:10;;;;;;;12.03;7.60;;;;;;;6.17;76.78;97276.49;120592;1148;104343;-82
2020/12/29 08:00:39;;;;;;;13.17;7.07;;;;;;;6.11;76.28;97280.30;120615;1148;104405;-81
2020/12/29 08:03:07;;;;;;;10.63;6.97;;;;;;;6.09;76.51;97286.46;120593;1150;104303;-81
2020/12/29 08:05:34;;;;;;;12.67;7.57;;;;;;;6.07;76.98;97283.97;120622;1148;104400;-81
2020/12/29 08:08:04;;;;;;;12.07;7.50;;;;;;;6.03;77.30;97285.92;120644;1148;103060;-82
2020/12/29 08:10:35;;;;;;;12.40;7.23;;;;;;;6.02;77.41;97289.44;120572;1148;103030;-81
2020/12/29 08:13:21;;;;;;;10.40;7.13;;;;;;;6.00;77.90;97280.11;120620;1148;104481;-81
2020/12/29 08:15:49;;;;;;;11.10;7.37;;;;;;;5.99;78.23;97310.32;120532;1148;104339;-81
2020/12/29 08:18:20;;;;;;;12.20;7.73;;;;;;;5.98;78.90;97287.13;120628;1151;104344;-81
2020/12/29 08:20:57;;;;;;;11.53;7.60;;;;;;;5.96;78.51;97284.64;120612;1150;104409;-82
2020/12/29 08:23:28;;;;;;;10.50;7.23;;;;;;;5.94;78.85;97285.66;120644;1148;104246;-80
2020/12/29 08:26:00;;;;;;;10.70;6.97;;;;;;;5.93;79.31;97290.01;120656;1151;104383;-81
2020/12/29 08:28:33;;;;;;;13.47;8.00;;;;;;;5.93;79.88;97284.00;120644;1148;104390;-81
2020/12/29 08:31:02;;;;;;;11.40;7.77;;;;;;;5.89;79.46;97288.47;120632;1150;104481;-81
2020/12/29 08:33:31;;;;;;;11.00;7.47;;;;;;;5.88;79.22;97276.47;120666;1148;104328;-81
2020/12/29 08:36:01;;;;;;;11.70;7.10;;;;;;;5.87;79.90;97286.91;120617;1150;102968;-82
2020/12/29 08:38:31;;;;;;;12.27;7.40;;;;;;;5.82;80.25;97282.02;120678;1148;104398;-82
2020/12/29 08:41:04;;;;;;;13.00;7.50;;;;;;;5.79;80.78;97269.28;120659;1148;102881;-82
2020/12/29 08:43:40;;;;;;;10.80;6.90;;;;;;;5.79;80.69;97276.20;120705;1150;104442;-82
2020/12/29 08:46:09;;;;;;;13.03;7.40;;;;;;;5.78;81.13;97284.89;120722;1150;104474;-81
2020/12/29 08:48:37;;;;;;;10.07;7.37;;;;;;;5.76;80.96;97287.57;120621;1150;104417;-82
2020/12/29 08:51:21;;;;;;;12.10;7.43;;;;;;;5.75;80.88;97285.91;120606;1148;104179;-81
2020/12/29 08:53:48;;;;;;;11.20;7.67;;;;;;;5.75;81.21;97285.91;120645;1149;104314;-81
2020/12/29 08:56:22;;;;;;;10.93;6.97;;;;;;;5.74;81.51;97285.08;120662;1148;101953;-83
2020/12/29 08:58:49;;;;;;;10.17;6.40;;;;;;;5.74;82.42;97284.22;120628;1148;104506;-82
2020/12/29 09:01:34;;;;;;;11.07;6.90;;;;;;;5.72;82.98;97288.65;120610;1148;104275;-82
2020/12/29 09:04:30;;;;;;;10.93;6.13;;;;;;;5.69;82.84;97278.50;120672;1148;105577;-81
2020/12/29 09:07:01;;;;;;;9.33;6.07;;;;;;;5.66;83.37;97281.27;120637;1148;104460;-83
2020/12/29 09:09:32;;;;;;;9.73;6.17;;;;;;;5.61;83.41;97288.48;120565;1148;103156;-83
2020/12/29 09:12:17;;;;;;;9.00;6.77;;;;;;;5.58;83.50;97279.16;120678;1149;104471;-83
2020/12/29 09:14:57;;;;;;;10.87;7.17;;;;;;;5.55;83.08;97273.30;120612;1148;102716;-82
2020/12/29 09:17:29;;;;;;;10.07;6.07;;;;;;;5.52;84.16;97284.66;120632;1148;104746;-82
2020/12/29 09:20:13;;;;;;;9.07;5.93;;;;;;;5.51;83.36;97287.34;120588;1148;104239;-83
2020/12/29 09:23:07;;;;;;;7.90;5.70;;;;;;;5.49;84.47;97284.02;120666;1148;104310;-83
2020/12/29 09:25:39;;;;;;;9.23;5.53;;;;;;;5.47;84.45;97291.87;120635;1148;104411;-84
2020/12/29 09:28:11;;;;;;;9.60;5.67;;;;;;;5.44;84.19;97279.95;120517;1148;104464;-83
2020/12/29 09:31:05;;;;;;;8.67;6.00;;;;;;;5.45;84.55;97288.55;120668;1147;104405;-83
2020/12/29 09:33:35;;;;;;;8.67;5.53;;;;;;;5.43;84.93;97275.71;120610;1148;104451;-83
2020/12/29 09:36:03;;;;;;;9.53;5.20;;;;;;;5.43;85.20;97286.05;120673;1148;104443;-83
2020/12/29 09:38:33;;;;;;;8.77;5.77;;;;;;;5.43;84.65;97272.30;120630;1148;103077;-83
2020/12/29 09:41:02;;;;;;;16.95;10.75;;;;;;;5.44;84.90;97272.20;120588;1148;104396;-83
2020/12/29 09:43:30;;;;;;;15.87;10.57;;;;;;;5.44;85.21;97272.20;120589;1148;104447;-83
2020/12/29 09:45:57;;;;;;;10.77;5.87;;;;;;;5.47;84.93;97271.19;120614;1151;104341;-83
2020/12/29 09:48:27;;;;;;;9.60;5.53;;;;;;;5.50;85.57;97278.76;120604;1150;104301;-83
2020/12/29 09:50:55;;;;;;;7.20;4.93;;;;;;;5.53;84.81;97280.33;120609;1150;104317;-83
2020/12/29 09:53:23;;;;;;;7.47;4.23;;;;;;;5.53;86.08;97285.49;120611;1148;104297;-82
2020/12/29 09:55:51;;;;;;;6.40;4.17;;;;;;;5.54;85.34;97298.33;120635;1146;104406;-82
2020/12/29 09:58:19;;;;;;;6.30;4.10;;;;;;;5.55;86.15;97291.41;120591;1148;104361;-82
2020/12/29 10:00:47;;;;;;;6.47;4.00;;;;;;;5.55;85.82;97288.81;120657;1148;104405;-83
2020/12/29 10:03:14;;;;;;;5.83;4.20;;;;;;;5.56;86.22;97287.89;120597;1148;104310;-83
2020/12/29 10:05:43;;;;;;;6.75;4.00;;;;;;;5.55;85.27;97293.98;120570;1148;104334;-83
2020/12/29 10:08:11;;;;;;;6.87;4.37;;;;;;;5.55;85.68;97299.16;120631;1148;104542;-83
2020/12/29 10:10:39;;;;;;;8.47;4.20;;;;;;;5.54;85.97;97302.67;120643;1148;103092;-83
2020/12/29 10:13:06;;;;;;;5.97;4.33;;;;;;;5.54;85.76;97306.08;120608;1148;104309;-83
2020/12/29 10:15:34;;;;;;;6.40;4.17;;;;;;;5.54;85.42;97329.34;120603;1148;104454;-83
2020/12/29 10:18:02;;;;;;;4.77;3.37;;;;;;;5.54;86.12;97364.70;120601;1148;104458;-83
2020/12/29 10:20:29;;;;;;;5.03;3.30;;;;;;;5.51;85.65;97359.72;120591;1148;104377;-83
2020/12/29 10:22:56;;;;;;;5.30;3.30;;;;;;;5.48;85.39;97345.23;120569;1148;104282;-82
2020/12/29 10:25:24;;;;;;;5.10;3.00;;;;;;;5.46;84.43;97352.23;120630;1148;104385;-82
2020/12/29 10:27:51;;;;;;;5.90;3.20;;;;;;;5.45;84.35;97361.75;120589;1148;104340;-82
2020/12/29 10:30:18;;;;;;;4.97;3.10;;;;;;;5.43;84.25;97353.25;120590;1148;104551;-82
2020/12/29 10:32:45;;;;;;;6.10;3.33;;;;;;;5.38;84.89;97360.41;120610;1148;104359;-82
2020/12/29 10:35:12;;;;;;;6.08;3.27;;;;;;;5.35;84.15;97365.77;120719;1148;104332;-82
2020/12/29 10:37:40;;;;;;;5.60;3.60;;;;;;;5.31;84.52;97363.45;120615;1148;104416;-82
2020/12/29 10:40:07;;;;;;;7.20;3.70;;;;;;;5.25;84.65;97399.98;120564;1148;104144;-82
2020/12/29 10:42:34;;;;;;;6.23;4.07;;;;;;;5.19;84.32;97390.80;120617;1148;104177;-81
2020/12/29 10:45:02;;;;;;;4.93;3.50;;;;;;;5.17;84.45;97397.80;120607;1148;104409;-81
2020/12/29 10:47:30;;;;;;;7.77;3.57;;;;;;;5.10;83.78;97404.25;120641;1148;104313;-81
2020/12/29 10:49:57;;;;;;;5.63;3.60;;;;;;;5.02;84.50;97434.81;120692;1150;104372;-80
2020/12/29 10:52:24;;;;;;;6.40;3.57;;;;;;;4.95;83.99;97429.16;120581;1149;104443;-81
2020/12/29 10:54:51;;;;;;;5.60;3.40;;;;;;;4.89;83.58;97439.00;120601;1148;104340;-81
2020/12/29 10:57:19;;;;;;;4.10;2.77;;;;;;;4.79;84.15;97454.14;120629;1148;104420;-81
2020/12/29 10:59:46;;;;;;;3.60;2.43;;;;;;;4.69;83.12;97453.81;120619;1148;104359;-81
2020/12/29 11:02:13;;;;;;;5.53;2.37;;;;;;;4.57;83.41;97464.77;120605;1148;104430;-81
2020/12/29 11:04:40;;;;;;;4.20;2.23;;;;;;;4.49;83.41;97492.73;120626;1148;104491;-81
2020/12/29 11:07:09;;;;;;;3.77;1.90;;;;;;;4.41;82.79;97500.02;120605;1148;104384;-80
2020/12/29 11:09:36;;;;;;;3.13;2.33;;;;;;;4.34;83.42;97493.52;120650;1148;104339;-81
2020/12/29 11:12:03;;;;;;;5.55;3.00;;;;;;;4.31;84.01;97503.97;120647;1150;104393;-81
2020/12/29 11:14:31;;;;;;;6.80;3.47;;;;;;;4.31;84.71;97524.61;120591;1148;104464;-81
2020/12/29 11:16:58;;;;;;;5.60;3.47;;;;;;;4.28;84.63;97524.77;120633;1150;104809;-81
2020/12/29 11:19:44;;;;;;;5.13;3.43;;;;;;;4.24;83.80;97544.73;120634;1148;104325;-81
2020/12/29 11:22:11;;;;;;;5.20;3.35;;;;;;;4.20;84.17;97559.53;120611;1148;104349;-82
2020/12/29 11:24:38;;;;;;;5.53;3.60;;;;;;;4.19;84.04;97563.03;120615;1150;104365;-81
2020/12/29 11:27:05;;;;;;;4.60;3.60;;;;;;;4.13;83.76;97560.76;120545;1148;104333;-81
2020/12/29 11:29:33;;;;;;;8.47;4.90;;;;;;;4.07;84.49;97584.25;120615;1148;104484;-81
2020/12/29 11:32:00;;;;;;;7.20;4.60;;;;;;;4.03;84.37;97587.89;120630;1148;104313;-80
2020/12/29 11:34:28;;;;;;;6.93;4.53;;;;;;;4.04;84.07;97602.45;120612;1151;104754;-81